< Cyclone 202222 2022 Season Cyclone 202225 >
Cyclone 202223 (Anika)
General InformationTrack Information on Google MapsDetailed Wind InformationList of All Images || ResourceGoogle EarthGE AnimationAtom FeedGeoJSON
Detalied Best Track (Time Zone = UTC)
Year Month Day Hour Lat. Long. Pressure (hPa) Wind (kt) Class Image Chart
2022 2 24 00 -12.6 128.7 1004 25 2 Image --
2022 2 24 06 -12.7 128.4 1002 25 2 Image --
2022 2 24 12 -12.5 127.9 1001 25 2 Image --
2022 2 24 18 -12.3 127.7 998 30 2 Image --
2022 2 25 00 -12.3 127.8 998 30 2 Image --
2022 2 25 06 -12.4 127.8 997 30 2 Image --
2022 2 25 12 -12.6 127.6 995 35 3 Image --
2022 2 25 15 -12.7 127.6 995 35 3 Image --
2022 2 25 18 -12.8 127.6 990 45 3 Image --
2022 2 26 00 -12.8 127.5 988 45 3 Image --
2022 2 26 06 -13.3 127.5 986 50 4 Image --
2022 2 26 12 -13.8 127.1 986 50 4 Image --
2022 2 26 18 -14.2 126.7 988 40 3 Image --
2022 2 27 00 -14.2 126.6 993 40 3 Image --
2022 2 27 06 -14.4 126.4 992 35 3 Image --
2022 2 27 12 -14.8 126.0 994 35 3 Image --
2022 2 27 18 -15.4 125.5 996 35 3 Image --
2022 2 28 00 -15.5 125.1 997 35 3 Image --
2022 2 28 06 -15.9 124.9 996 30 2 Image --
2022 2 28 12 -16.4 124.2 998 25 2 Image --
2022 2 28 18 -16.6 123.6 998 25 2 Image --
2022 3 1 00 -16.6 122.6 997 25 2 Image --
2022 3 1 06 -16.9 122.2 996 30 2 Image --
2022 3 1 12 -17.3 122.0 995 30 2 Image --
2022 3 1 18 -18.1 122.0 992 30 2 Image --
2022 3 2 00 -18.8 121.0 993 35 3 Image --
2022 3 2 06 -19.4 120.6 986 40 3 Image --
2022 3 2 12 -19.7 120.5 978 50 4 Image --
2022 3 2 18 -20.1 121.0 982 40 3 Image --
2022 3 3 00 -20.9 121.6 982 40 3 Image --
2022 3 3 06 -22.0 122.1 986 40 3 Image --
2022 3 3 12 -22.6 122.9 988 35 3 Image --
2022 3 3 18 -22.6 123.4 999 30 2 Image --
2022 3 4 00 -22.6 123.9 1001 25 2 Image --
< Cyclone 202222 2022 Season Cyclone 202225 >

Help